createdAt,value
2023-01-20T00:01:40.021Z,3.10
2023-01-20T00:04:07.307Z,3.10
2023-01-20T00:06:34.282Z,3.10
2023-01-20T00:09:04.460Z,5.50
2023-01-20T00:11:31.820Z,4.30
2023-01-20T00:14:02.143Z,3.00
2023-01-20T00:16:32.147Z,3.00
2023-01-20T00:18:59.905Z,3.10
2023-01-20T00:21:26.891Z,3.00
2023-01-20T00:23:54.628Z,3.00
2023-01-20T00:26:24.463Z,3.00
2023-01-20T00:28:55.038Z,2.90
2023-01-20T00:31:28.488Z,4.30
2023-01-20T00:34:01.139Z,3.00
2023-01-20T00:36:31.603Z,3.00
2023-01-20T00:38:59.144Z,3.90
2023-01-20T00:41:26.147Z,2.90
2023-01-20T00:43:54.212Z,3.00
2023-01-20T00:46:22.980Z,5.10
2023-01-20T00:48:49.985Z,5.10
2023-01-20T00:55:49.118Z,2.90
2023-01-20T00:58:16.957Z,2.90
2023-01-20T01:00:48.327Z,2.90
2023-01-20T01:03:16.098Z,3.00
2023-01-20T01:05:46.504Z,3.00
2023-01-20T01:08:14.379Z,3.00
2023-01-20T01:10:41.557Z,3.00
2023-01-20T01:13:08.999Z,3.00
2023-01-20T01:15:36.661Z,4.90
2023-01-20T01:18:04.017Z,3.00
2023-01-20T01:20:31.361Z,3.00
2023-01-20T01:22:58.377Z,3.00
2023-01-20T01:25:25.336Z,3.00
2023-01-20T01:27:52.475Z,3.00
2023-01-20T01:30:19.606Z,3.10
2023-01-20T01:32:47.464Z,3.00
2023-01-20T01:35:14.909Z,3.10
2023-01-20T01:37:42.008Z,3.10
2023-01-20T01:40:10.427Z,3.10
2023-01-20T01:42:38.090Z,3.10
2023-01-20T01:45:11.445Z,5.50
2023-01-20T01:47:52.953Z,3.10
2023-01-20T01:50:45.617Z,3.10
2023-01-20T01:53:14.942Z,3.10
2023-01-20T01:55:50.665Z,3.10
2023-01-20T01:58:24.791Z,3.20
2023-01-20T02:00:52.636Z,3.10
2023-01-20T02:03:21.052Z,3.10
2023-01-20T02:05:52.740Z,3.10
2023-01-20T02:08:20.408Z,3.20
2023-01-20T02:10:47.322Z,3.10
2023-01-20T02:13:14.572Z,3.10
2023-01-20T02:16:10.447Z,4.30
2023-01-20T02:19:15.406Z,3.10
2023-01-20T02:22:05.766Z,3.20
2023-01-20T02:24:59.085Z,3.10
2023-01-20T02:28:09.366Z,3.20
2023-01-20T02:31:16.812Z,3.20
2023-01-20T02:34:08.162Z,3.10
2023-01-20T02:37:12.842Z,3.10
2023-01-20T02:40:25.390Z,3.10
2023-01-20T02:43:12.396Z,3.20
2023-01-20T02:45:59.034Z,3.20
2023-01-20T02:48:39.802Z,3.20
2023-01-20T02:51:29.939Z,3.20
2023-01-20T02:54:04.194Z,5.30
2023-01-20T02:56:35.010Z,5.60
2023-01-20T02:59:20.086Z,3.20
2023-01-20T03:01:57.991Z,3.20
2023-01-20T03:04:36.278Z,5.70
2023-01-20T03:07:05.784Z,3.20
2023-01-20T03:09:43.595Z,3.20
2023-01-20T03:12:28.070Z,3.20
2023-01-20T03:14:55.216Z,3.20
2023-01-20T03:17:37.862Z,3.20
2023-01-20T03:20:05.805Z,3.20
2023-01-20T03:22:33.215Z,3.20
2023-01-20T03:25:01.317Z,3.20
2023-01-20T03:27:28.255Z,5.40
2023-01-20T03:29:55.319Z,3.20
2023-01-20T03:32:26.801Z,3.20
2023-01-20T03:34:58.589Z,3.20
2023-01-20T03:37:25.619Z,3.20
2023-01-20T03:39:52.751Z,3.20
2023-01-20T03:42:39.570Z,3.20
2023-01-20T03:45:40.893Z,3.20
2023-01-20T03:48:40.050Z,3.20
2023-01-20T03:51:42.751Z,3.20
2023-01-20T03:54:16.482Z,3.20
2023-01-20T03:57:04.119Z,3.20
2023-01-20T03:59:37.051Z,3.20
2023-01-20T04:02:08.035Z,5.60
2023-01-20T04:04:41.615Z,3.20
2023-01-20T04:07:18.546Z,3.20
2023-01-20T04:09:52.785Z,3.60
2023-01-20T04:12:20.012Z,3.20
2023-01-20T04:14:47.009Z,3.60
2023-01-20T04:17:14.635Z,3.20
2023-01-20T04:19:41.535Z,3.20
2023-01-20T04:22:27.241Z,3.20
2023-01-20T04:25:02.622Z,3.20
2023-01-20T04:27:29.950Z,3.30
2023-01-20T04:29:56.835Z,3.20
2023-01-20T04:32:23.913Z,3.20
2023-01-20T04:34:52.419Z,3.20
2023-01-20T04:37:19.507Z,3.20
2023-01-20T04:39:46.369Z,5.10
2023-01-20T04:42:13.374Z,3.10
2023-01-20T04:44:43.220Z,4.10
2023-01-20T04:47:10.260Z,3.20
2023-01-20T04:49:38.183Z,3.10
2023-01-20T04:52:05.421Z,3.10
2023-01-20T04:54:32.441Z,5.10
2023-01-20T04:57:00.259Z,3.10
2023-01-20T04:59:27.254Z,3.70
2023-01-20T05:01:54.445Z,5.00
2023-01-20T05:04:21.655Z,3.10
2023-01-20T05:06:48.724Z,3.10
2023-01-20T05:09:16.686Z,3.10
2023-01-20T05:11:44.299Z,6.10
2023-01-20T05:14:12.756Z,3.10
2023-01-20T05:16:40.050Z,3.10
2023-01-20T05:19:07.071Z,3.10
2023-01-20T05:21:34.308Z,4.60
2023-01-20T05:24:01.207Z,4.60
2023-01-20T05:26:28.255Z,3.10
2023-01-20T05:28:55.289Z,3.10
2023-01-20T05:31:23.339Z,3.00
2023-01-20T05:33:50.406Z,3.10
2023-01-20T05:36:17.620Z,3.10
2023-01-20T05:38:44.517Z,3.10
2023-01-20T05:41:11.885Z,3.10
2023-01-20T05:43:38.873Z,3.10
2023-01-20T05:46:07.154Z,3.10
2023-01-20T05:48:34.170Z,3.10
2023-01-20T05:51:01.116Z,3.70
2023-01-20T05:53:28.073Z,3.10
2023-01-20T05:56:04.513Z,5.00
2023-01-20T05:58:32.323Z,3.10
2023-01-20T06:01:09.561Z,3.10
2023-01-20T06:03:37.868Z,3.20
2023-01-20T06:06:08.959Z,3.10
2023-01-20T06:08:36.179Z,3.10
2023-01-20T06:11:03.099Z,3.20
2023-01-20T06:13:30.261Z,4.20
2023-01-20T06:15:58.076Z,3.10
2023-01-20T06:18:25.453Z,3.20
2023-01-20T06:20:52.522Z,3.20
2023-01-20T06:23:19.464Z,4.80
2023-01-20T06:25:46.331Z,5.70
2023-01-20T06:28:13.278Z,3.20
2023-01-20T06:30:43.240Z,3.20
2023-01-20T06:33:10.860Z,4.10
2023-01-20T06:35:38.222Z,3.20
2023-01-20T06:38:05.268Z,3.20
2023-01-20T06:40:32.266Z,3.10
2023-01-20T06:42:59.608Z,5.40
2023-01-20T06:45:26.653Z,3.20
2023-01-20T06:47:53.611Z,3.30
2023-01-20T06:50:20.519Z,3.20
2023-01-20T06:52:47.569Z,5.50
2023-01-20T06:55:14.905Z,3.20
2023-01-20T06:57:42.809Z,3.30
2023-01-20T07:00:11.327Z,3.20
2023-01-20T07:02:38.560Z,3.20
2023-01-20T07:05:08.088Z,3.20
2023-01-20T07:07:35.346Z,3.20
2023-01-20T07:10:03.806Z,5.50
2023-01-20T07:12:30.914Z,4.90
2023-01-20T07:14:57.911Z,3.20
2023-01-20T07:17:25.071Z,3.20
2023-01-20T07:19:52.297Z,3.20
2023-01-20T07:22:19.358Z,3.20
2023-01-20T07:24:46.289Z,3.20
2023-01-20T07:27:15.102Z,3.20
2023-01-20T07:29:42.282Z,4.40
2023-01-20T07:32:09.271Z,3.60
2023-01-20T07:34:36.289Z,3.20
2023-01-20T07:37:03.557Z,3.20
2023-01-20T07:39:30.593Z,3.20
2023-01-20T07:41:57.540Z,5.60
2023-01-20T07:44:25.094Z,3.20
2023-01-20T07:46:53.000Z,4.30
2023-01-20T07:49:19.904Z,4.50
2023-01-20T07:51:46.825Z,4.10
2023-01-20T07:54:14.055Z,3.40
2023-01-20T07:56:41.402Z,3.20
2023-01-20T07:59:10.523Z,3.20
2023-01-20T08:01:38.508Z,4.70
2023-01-20T08:04:05.559Z,3.30
2023-01-20T08:06:33.543Z,3.30
2023-01-20T08:09:02.367Z,3.30
2023-01-20T08:11:29.641Z,3.30
2023-01-20T08:13:56.712Z,3.20
2023-01-20T08:16:23.833Z,3.30
2023-01-20T08:18:54.923Z,5.30
2023-01-20T08:21:32.826Z,3.30
2023-01-20T08:24:04.609Z,3.70
2023-01-20T08:26:32.914Z,3.30
2023-01-20T08:29:09.552Z,4.00
2023-01-20T08:31:37.497Z,4.80
2023-01-20T08:34:05.417Z,3.40
2023-01-20T08:36:37.006Z,4.30
2023-01-20T08:39:07.884Z,3.40
2023-01-20T08:41:38.500Z,3.40
2023-01-20T08:44:08.219Z,5.60
2023-01-20T08:46:40.431Z,3.40
2023-01-20T08:49:15.727Z,3.50
2023-01-20T08:51:44.816Z,3.90
2023-01-20T08:54:12.078Z,3.50
2023-01-20T08:56:39.108Z,3.50
2023-01-20T08:59:06.510Z,3.50
2023-01-20T09:01:38.310Z,4.20
2023-01-20T09:04:07.333Z,3.50
2023-01-20T09:06:45.953Z,3.50
2023-01-20T09:09:16.036Z,3.50
2023-01-20T09:11:50.443Z,3.50
2023-01-20T09:14:20.474Z,5.60
2023-01-20T09:16:48.677Z,5.60
2023-01-20T09:19:16.172Z,3.50
2023-01-20T09:21:44.839Z,5.80
2023-01-20T09:24:11.979Z,3.50
2023-01-20T09:26:39.005Z,4.70
2023-01-20T09:29:14.321Z,3.50
2023-01-20T09:31:45.705Z,3.40
2023-01-20T09:34:19.696Z,5.30
2023-01-20T09:36:57.938Z,3.50
2023-01-20T09:39:43.940Z,3.50
2023-01-20T09:42:50.241Z,3.50
2023-01-20T09:45:36.500Z,3.50
2023-01-20T09:48:43.879Z,3.50
2023-01-20T09:51:44.600Z,3.50
2023-01-20T09:54:29.088Z,5.20
2023-01-20T09:57:00.547Z,3.50
2023-01-20T09:59:37.781Z,3.50
2023-01-20T10:02:17.516Z,3.50
2023-01-20T10:05:13.396Z,3.50
2023-01-20T10:07:50.660Z,3.50
2023-01-20T10:10:33.089Z,5.10
2023-01-20T10:13:26.259Z,3.40
2023-01-20T10:15:57.708Z,3.40
2023-01-20T10:18:34.202Z,3.40
2023-01-20T10:21:22.229Z,4.20
2023-01-20T10:24:28.948Z,3.40
2023-01-20T10:27:04.240Z,3.40
2023-01-20T10:29:58.850Z,3.40
2023-01-20T10:32:36.859Z,3.40
2023-01-20T10:35:25.185Z,3.40
2023-01-20T10:37:55.719Z,3.40
2023-01-20T10:40:42.287Z,3.40
2023-01-20T10:43:16.985Z,3.40
2023-01-20T10:46:10.371Z,3.40
2023-01-20T10:49:25.577Z,3.40
2023-01-20T10:52:17.779Z,3.50
2023-01-20T10:55:30.091Z,3.50
2023-01-20T10:58:14.387Z,3.50
2023-01-20T11:00:44.048Z,4.60
2023-01-20T11:03:19.063Z,3.60
2023-01-20T11:05:49.353Z,5.70
2023-01-20T11:08:25.925Z,3.60
2023-01-20T11:10:59.425Z,4.80
2023-01-20T11:13:26.629Z,5.80
2023-01-20T11:16:07.026Z,3.60
2023-01-20T11:18:36.270Z,3.70
2023-01-20T11:21:08.470Z,3.70
2023-01-20T11:23:38.038Z,3.70
2023-01-20T11:26:10.966Z,3.70
2023-01-20T11:28:53.941Z,3.80
2023-01-20T11:31:34.979Z,3.80
2023-01-20T11:34:28.130Z,6.20
2023-01-20T11:37:39.547Z,3.90
2023-01-20T11:40:28.294Z,3.90
2023-01-20T11:42:55.527Z,3.90
2023-01-20T11:45:33.257Z,5.80
2023-01-20T11:48:16.902Z,4.00
2023-01-20T11:50:57.706Z,4.00
2023-01-20T11:53:28.807Z,4.00
2023-01-20T11:56:14.646Z,4.10
2023-01-20T11:58:57.570Z,4.10
2023-01-20T12:01:49.312Z,4.20
2023-01-20T12:04:35.709Z,4.20
2023-01-20T12:07:25.150Z,4.30
2023-01-20T12:09:59.531Z,4.30
2023-01-20T12:12:34.034Z,4.30
2023-01-20T12:15:16.882Z,4.40
2023-01-20T12:18:18.868Z,4.40
2023-01-20T12:21:05.632Z,4.50
2023-01-20T12:24:01.586Z,4.60
2023-01-20T12:26:31.716Z,4.80
2023-01-20T12:29:44.720Z,6.40
2023-01-20T12:32:11.914Z,6.50
2023-01-20T12:34:39.118Z,5.20
2023-01-20T12:37:35.654Z,5.90
2023-01-20T12:40:24.284Z,7.70
2023-01-20T12:43:11.525Z,5.70
2023-01-20T12:46:03.064Z,5.80
2023-01-20T12:48:55.878Z,5.90
2023-01-20T12:51:59.722Z,6.00
2023-01-20T12:54:51.636Z,6.00
2023-01-20T12:58:00.985Z,6.10
2023-01-20T13:00:55.881Z,6.10
2023-01-20T13:03:48.764Z,6.00
2023-01-20T13:06:50.344Z,6.00
2023-01-20T13:09:54.412Z,5.80
2023-01-20T13:13:02.815Z,5.60
2023-01-20T13:15:42.733Z,5.50
2023-01-20T13:18:51.148Z,5.40
2023-01-20T13:21:21.072Z,6.30
2023-01-20T13:23:53.195Z,5.20
2023-01-20T13:26:20.779Z,6.50
2023-01-20T13:28:54.684Z,4.90
2023-01-20T13:31:36.540Z,4.80
2023-01-20T13:34:21.671Z,4.80
2023-01-20T13:37:04.250Z,4.70
2023-01-20T13:39:43.301Z,4.80
2023-01-20T13:42:31.090Z,4.60
2023-01-20T13:45:13.324Z,4.60
2023-01-20T13:48:19.220Z,4.60
2023-01-20T13:50:47.651Z,6.90
2023-01-20T13:53:34.984Z,4.50
2023-01-20T13:56:32.909Z,4.50
2023-01-20T13:58:59.993Z,4.50
2023-01-20T14:01:28.420Z,4.50
2023-01-20T14:04:19.601Z,4.50
2023-01-20T14:06:50.546Z,4.50
2023-01-20T14:09:24.366Z,5.70
2023-01-20T14:11:57.594Z,4.50
2023-01-20T14:14:27.301Z,4.40
2023-01-20T14:16:56.603Z,6.50
2023-01-20T14:19:34.089Z,4.40
2023-01-20T14:22:31.996Z,4.40
2023-01-20T14:25:00.740Z,4.40
2023-01-20T14:27:35.506Z,4.40
2023-01-20T14:30:26.848Z,4.90
2023-01-20T14:32:54.424Z,4.30
2023-01-20T14:35:34.148Z,4.30
2023-01-20T14:38:02.101Z,4.30
2023-01-20T14:40:34.208Z,4.20
2023-01-20T14:43:22.578Z,4.30
2023-01-20T14:45:52.739Z,4.20
2023-01-20T14:48:33.919Z,4.20
2023-01-20T14:51:04.237Z,6.40
2023-01-20T14:53:31.506Z,5.50
2023-01-20T14:56:08.708Z,4.20
2023-01-20T14:58:36.443Z,4.20
2023-01-20T15:01:06.628Z,4.20
2023-01-20T15:03:33.707Z,4.20
2023-01-20T15:06:11.125Z,4.20
2023-01-20T15:08:38.823Z,4.20
2023-01-20T15:11:21.255Z,4.70
2023-01-20T15:13:53.043Z,4.40
2023-01-20T15:16:26.252Z,6.00
2023-01-20T15:19:16.606Z,4.20
2023-01-20T15:21:52.931Z,4.20
2023-01-20T15:24:30.466Z,4.20
2023-01-20T15:27:00.683Z,4.20
2023-01-20T15:29:36.649Z,4.20
2023-01-20T15:32:11.740Z,4.20
2023-01-20T15:34:38.788Z,6.10
2023-01-20T15:37:18.523Z,5.80
2023-01-20T15:39:45.710Z,4.20
2023-01-20T15:42:15.199Z,6.20
2023-01-20T15:44:42.466Z,4.20
2023-01-20T15:47:25.857Z,4.20
2023-01-20T15:49:53.083Z,1.50
2023-01-20T15:52:20.074Z,3.70
2023-01-20T15:54:47.025Z,4.20
2023-01-20T15:57:16.852Z,4.20
2023-01-20T15:59:49.803Z,4.20
2023-01-20T16:02:23.682Z,4.10
2023-01-20T16:04:50.868Z,4.10
2023-01-20T16:07:20.550Z,4.10
2023-01-20T16:09:47.660Z,4.10
2023-01-20T16:12:17.773Z,6.50
2023-01-20T16:14:45.402Z,4.10
2023-01-20T16:17:20.983Z,4.00
2023-01-20T16:19:49.931Z,4.00
2023-01-20T16:22:17.341Z,4.00
2023-01-20T16:24:44.369Z,4.50
2023-01-20T16:27:19.615Z,4.00
2023-01-20T16:29:47.069Z,6.20
2023-01-20T16:32:17.057Z,3.90
2023-01-20T16:34:45.496Z,3.90
2023-01-20T16:37:14.740Z,5.60
2023-01-20T16:39:41.845Z,3.90
2023-01-20T16:42:16.145Z,5.00
2023-01-20T16:44:43.155Z,4.00
2023-01-20T16:47:10.105Z,3.90
2023-01-20T16:49:37.206Z,3.90
2023-01-20T16:52:06.839Z,5.60
2023-01-20T16:54:33.803Z,3.90
2023-01-20T16:57:00.740Z,3.90
2023-01-20T16:59:27.776Z,3.90
2023-01-20T17:01:55.231Z,3.90
2023-01-20T17:04:22.733Z,4.20
2023-01-20T17:06:53.511Z,3.90
2023-01-20T17:09:20.462Z,3.90
2023-01-20T17:11:47.463Z,3.90
2023-01-20T17:14:15.569Z,3.90
2023-01-20T17:16:42.661Z,3.90
2023-01-20T17:19:10.297Z,3.90
2023-01-20T17:21:39.258Z,3.90
2023-01-20T17:24:07.272Z,5.30
2023-01-20T17:26:34.733Z,3.90
2023-01-20T17:29:05.069Z,3.90
2023-01-20T17:31:36.656Z,3.90
2023-01-20T17:34:09.428Z,2.80
2023-01-20T17:36:36.640Z,3.90
2023-01-20T17:39:05.560Z,3.90
2023-01-20T17:41:33.878Z,3.90
2023-01-20T17:44:01.004Z,3.90
2023-01-20T17:46:30.429Z,3.90
2023-01-20T17:49:04.713Z,4.30
2023-01-20T17:51:31.903Z,3.90
2023-01-20T17:54:02.442Z,3.90
2023-01-20T17:56:31.672Z,4.90
2023-01-20T17:58:58.631Z,5.00
2023-01-20T18:01:28.948Z,3.90
2023-01-20T18:03:58.749Z,3.90
2023-01-20T18:06:27.680Z,3.90
2023-01-20T18:09:01.255Z,6.20
2023-01-20T18:11:35.101Z,3.90
2023-01-20T18:14:04.746Z,4.30
2023-01-20T18:16:38.986Z,3.90
2023-01-20T18:19:07.305Z,4.00
2023-01-20T18:21:37.164Z,3.90
2023-01-20T18:24:10.433Z,3.90
2023-01-20T18:26:39.997Z,3.90
2023-01-20T18:29:14.191Z,5.50
2023-01-20T18:31:42.001Z,4.00
2023-01-20T18:34:16.385Z,5.80
2023-01-20T18:36:46.553Z,4.90
2023-01-20T18:39:21.748Z,4.00
2023-01-20T18:41:51.066Z,3.40
2023-01-20T18:44:19.691Z,3.90
2023-01-20T18:46:49.436Z,4.00
2023-01-20T18:49:19.574Z,6.30
2023-01-20T18:51:46.826Z,4.00
2023-01-20T18:54:18.685Z,4.00
2023-01-20T18:56:45.751Z,4.00
2023-01-20T18:59:13.585Z,4.10
2023-01-20T19:01:41.827Z,4.00
2023-01-20T19:04:12.227Z,4.00
2023-01-20T19:06:43.749Z,4.00
2023-01-20T19:09:11.894Z,3.90
2023-01-20T19:11:41.417Z,3.90
2023-01-20T19:14:13.538Z,3.90
2023-01-20T19:16:45.143Z,3.80
2023-01-20T19:19:13.586Z,3.70
2023-01-20T19:21:40.775Z,3.70
2023-01-20T19:24:10.857Z,3.60
2023-01-20T19:26:39.263Z,3.60
2023-01-20T19:29:11.827Z,3.50
2023-01-20T19:31:40.426Z,3.40
2023-01-20T19:34:09.379Z,5.60
2023-01-20T19:36:37.203Z,3.30
2023-01-20T19:39:05.011Z,3.60
2023-01-20T19:41:35.769Z,3.20
2023-01-20T19:44:07.360Z,3.20
2023-01-20T19:46:38.899Z,3.20
2023-01-20T19:49:06.850Z,3.10
2023-01-20T19:51:34.120Z,4.30
2023-01-20T19:54:02.614Z,3.10
2023-01-20T19:56:33.293Z,3.00
2023-01-20T19:59:01.319Z,3.00
2023-01-20T20:01:32.471Z,2.90
2023-01-20T20:04:09.485Z,2.90
2023-01-20T20:06:47.890Z,2.90
2023-01-20T20:09:21.213Z,3.00
2023-01-20T20:11:49.778Z,2.80
2023-01-20T20:14:20.832Z,2.80
2023-01-20T20:16:49.170Z,2.70
2023-01-20T20:19:19.248Z,2.70
2023-01-20T20:21:47.132Z,2.70
2023-01-20T20:24:17.846Z,2.60
2023-01-20T20:26:46.725Z,2.60
2023-01-20T20:29:16.817Z,2.60
2023-01-20T20:31:44.305Z,2.60
2023-01-20T20:34:17.525Z,2.30
2023-01-20T20:36:45.125Z,2.50
2023-01-20T20:39:18.345Z,2.50
2023-01-20T20:41:46.373Z,2.50
2023-01-20T20:44:13.700Z,2.40
2023-01-20T20:46:41.247Z,2.40
2023-01-20T20:49:13.972Z,2.40
2023-01-20T20:51:42.376Z,2.40
2023-01-20T20:54:12.237Z,4.70
2023-01-20T20:56:39.265Z,2.30
2023-01-20T20:59:06.431Z,2.30
2023-01-20T21:01:34.761Z,2.30
2023-01-20T21:04:05.799Z,2.30
2023-01-20T21:06:33.728Z,2.30
2023-01-20T21:09:00.800Z,2.30
2023-01-20T21:11:28.778Z,2.20
2023-01-20T21:13:56.504Z,2.20
2023-01-20T21:16:24.572Z,4.00
2023-01-20T21:18:56.131Z,2.20
2023-01-20T21:21:25.339Z,2.30
2023-01-20T21:23:56.705Z,2.30
2023-01-20T21:26:28.200Z,2.20
2023-01-20T21:28:57.700Z,2.20
2023-01-20T21:31:28.359Z,2.20
2023-01-20T21:33:58.815Z,2.20
2023-01-20T21:36:27.985Z,2.20
2023-01-20T21:38:55.131Z,2.20
2023-01-20T21:41:22.182Z,2.20
2023-01-20T21:44:09.114Z,2.20
2023-01-20T21:46:40.665Z,2.20
2023-01-20T21:49:30.285Z,2.20
2023-01-20T21:52:16.332Z,2.10
2023-01-20T21:54:45.308Z,2.10
2023-01-20T21:57:13.855Z,2.10
2023-01-20T21:59:43.190Z,3.20
2023-01-20T22:02:13.909Z,2.00
2023-01-20T22:04:42.227Z,4.80
2023-01-20T22:07:10.395Z,2.00
2023-01-20T22:09:40.546Z,2.00
2023-01-20T22:12:08.281Z,2.00
2023-01-20T22:14:35.383Z,1.90
2023-01-20T22:17:02.755Z,1.90
2023-01-20T22:19:30.134Z,1.90
2023-01-20T22:21:58.473Z,2.20
2023-01-20T22:24:25.736Z,1.90
2023-01-20T22:26:53.348Z,1.90
2023-01-20T22:31:53.121Z,1.80
2023-01-20T22:34:21.873Z,1.80
2023-01-20T22:36:48.932Z,1.70
2023-01-20T22:39:16.499Z,1.70
2023-01-20T22:41:43.932Z,2.80
2023-01-20T22:44:10.979Z,1.70
2023-01-20T22:46:38.010Z,1.70
2023-01-20T22:49:05.109Z,4.10
2023-01-20T22:51:32.533Z,3.60
2023-01-20T22:54:01.569Z,1.60
2023-01-20T22:56:32.132Z,1.60
2023-01-20T22:59:00.602Z,1.50
2023-01-20T23:01:32.609Z,2.50
2023-01-20T23:04:03.810Z,1.60
2023-01-20T23:06:34.263Z,1.50
2023-01-20T23:09:08.864Z,1.60
2023-01-20T23:11:38.190Z,1.50
2023-01-20T23:14:06.553Z,1.50
2023-01-20T23:16:33.755Z,1.50
2023-01-20T23:19:00.683Z,1.50
2023-01-20T23:21:27.722Z,1.90
2023-01-20T23:23:55.049Z,1.50
2023-01-20T23:26:29.114Z,1.50
2023-01-20T23:28:57.057Z,1.50
2023-01-20T23:31:26.011Z,1.50
2023-01-20T23:33:54.487Z,1.50
2023-01-20T23:36:25.194Z,1.50
2023-01-20T23:38:56.549Z,1.60
2023-01-20T23:41:24.812Z,2.50
2023-01-20T23:43:52.092Z,1.60
2023-01-20T23:46:21.905Z,1.60
2023-01-20T23:48:48.880Z,1.60
2023-01-20T23:51:16.199Z,1.60
2023-01-20T23:53:43.684Z,1.60
2023-01-20T23:56:20.236Z,1.60
2023-01-20T23:58:47.811Z,1.60
